sensor_id;sensor_type;location;lat;lon;timestamp;pressure;altitude;pressure_sealevel;temperature;humidity
57801;BME280;43627;42.728;23.256;2023-04-06T00:00:38;94768.72;;;-0.64;100.00
57801;BME280;43627;42.728;23.256;2023-04-06T00:03:05;94744.69;;;-0.75;100.00
57801;BME280;43627;42.728;23.256;2023-04-06T00:05:32;94730.97;;;-0.80;100.00
57801;BME280;43627;42.728;23.256;2023-04-06T00:07:59;94688.31;;;-1.02;100.00
57801;BME280;43627;42.728;23.256;2023-04-06T00:10:28;94748.47;;;-0.65;100.00
57801;BME280;43627;42.728;23.256;2023-04-06T00:12:55;94745.75;;;-0.62;100.00
57801;BME280;43627;42.728;23.256;2023-04-06T00:15:23;94742.34;;;-0.66;100.00
57801;BME280;43627;42.728;23.256;2023-04-06T00:17:49;94746.81;;;-0.52;100.00
57801;BME280;43627;42.728;23.256;2023-04-06T00:20:16;94738.72;;;-0.48;100.00
57801;BME280;43627;42.728;23.256;2023-04-06T00:22:44;94717.81;;;-0.61;100.00
57801;BME280;43627;42.728;23.256;2023-04-06T00:25:11;94724.25;;;-0.54;100.00
57801;BME280;43627;42.728;23.256;2023-04-06T00:27:38;94740.66;;;-0.49;100.00
57801;BME280;43627;42.728;23.256;2023-04-06T00:30:05;94736.00;;;-0.38;100.00
57801;BME280;43627;42.728;23.256;2023-04-06T00:32:32;94727.25;;;-0.45;100.00
57801;BME280;43627;42.728;23.256;2023-04-06T00:34:59;94726.84;;;-0.44;100.00
57801;BME280;43627;42.728;23.256;2023-04-06T00:37:26;94715.38;;;-0.48;100.00
57801;BME280;43627;42.728;23.256;2023-04-06T00:39:53;94713.91;;;-0.52;100.00
57801;BME280;43627;42.728;23.256;2023-04-06T00:42:21;94703.00;;;-0.72;100.00
57801;BME280;43627;42.728;23.256;2023-04-06T00:44:57;94712.44;;;-0.61;100.00
57801;BME280;43627;42.728;23.256;2023-04-06T00:47:24;94710.94;;;-0.62;100.00
57801;BME280;43627;42.728;23.256;2023-04-06T00:49:54;94710.97;;;-0.65;100.00
57801;BME280;43627;42.728;23.256;2023-04-06T00:52:21;94710.97;;;-0.65;100.00
57801;BME280;43627;42.728;23.256;2023-04-06T00:54:48;94715.50;;;-0.59;100.00
57801;BME280;43627;42.728;23.256;2023-04-06T00:57:16;94700.63;;;-0.67;100.00
57801;BME280;43627;42.728;23.256;2023-04-06T00:59:43;94686.94;;;-0.76;100.00
57801;BME280;43627;42.728;23.256;2023-04-06T01:02:11;94710.56;;;-0.64;100.00
57801;BME280;43627;42.728;23.256;2023-04-06T01:04:37;94678.59;;;-0.81;100.00
57801;BME280;43627;42.728;23.256;2023-04-06T01:07:04;94695.59;;;-0.58;100.00
57801;BME280;43627;42.728;23.256;2023-04-06T01:09:31;94677.75;;;-0.71;100.00
57801;BME280;43627;42.728;23.256;2023-04-06T01:11:58;94706.28;;;-0.58;100.00
57801;BME280;43627;42.728;23.256;2023-04-06T01:14:25;94689.59;;;-0.72;100.00
57801;BME280;43627;42.728;23.256;2023-04-06T01:16:52;94700.94;;;-0.58;100.00
57801;BME280;43627;42.728;23.256;2023-04-06T01:19:19;94703.25;;;-0.56;100.00
57801;BME280;43627;42.728;23.256;2023-04-06T01:21:47;94696.28;;;-0.46;100.00
57801;BME280;43627;42.728;23.256;2023-04-06T01:24:16;94697.69;;;-0.38;100.00
57801;BME280;43627;42.728;23.256;2023-04-06T01:26:43;94692.75;;;-0.40;100.00
57801;BME280;43627;42.728;23.256;2023-04-06T01:29:10;94619.00;;;-0.89;100.00
57801;BME280;43627;42.728;23.256;2023-04-06T01:31:37;94695.47;;;-0.43;100.00
57801;BME280;43627;42.728;23.256;2023-04-06T01:34:04;94690.50;;;-0.45;100.00
57801;BME280;43627;42.728;23.256;2023-04-06T01:36:31;94685.16;;;-0.45;100.00
57801;BME280;43627;42.728;23.256;2023-04-06T01:38:58;94673.38;;;-0.54;100.00
57801;BME280;43627;42.728;23.256;2023-04-06T01:41:25;94686.66;;;-0.44;100.00
57801;BME280;43627;42.728;23.256;2023-04-06T01:43:52;94646.72;;;-0.69;100.00
57801;BME280;43627;42.728;23.256;2023-04-06T01:46:21;94684.31;;;-0.38;100.00
57801;BME280;43627;42.728;23.256;2023-04-06T01:48:48;94676.38;;;-0.49;100.00
57801;BME280;43627;42.728;23.256;2023-04-06T01:51:15;94679.91;;;-0.55;100.00
57801;BME280;43627;42.728;23.256;2023-04-06T01:53:41;94651.75;;;-0.74;100.00
57801;BME280;43627;42.728;23.256;2023-04-06T01:56:09;94677.13;;;-0.48;100.00
57801;BME280;43627;42.728;23.256;2023-04-06T01:58:36;94646.72;;;-0.69;100.00
57801;BME280;43627;42.728;23.256;2023-04-06T02:01:02;94674.16;;;-0.58;100.00
57801;BME280;43627;42.728;23.256;2023-04-06T02:03:29;94669.84;;;-0.48;100.00
57801;BME280;43627;42.728;23.256;2023-04-06T02:05:57;94662.28;;;-0.53;100.00
57801;BME280;43627;42.728;23.256;2023-04-06T02:08:24;94666.16;;;-0.61;100.00
57801;BME280;43627;42.728;23.256;2023-04-06T02:10:50;94663.88;;;-0.63;100.00
57801;BME280;43627;42.728;23.256;2023-04-06T02:13:17;94662.72;;;-0.62;100.00
57801;BME280;43627;42.728;23.256;2023-04-06T02:15:44;94673.09;;;-0.67;100.00
57801;BME280;43627;42.728;23.256;2023-04-06T02:18:11;94659.69;;;-0.64;100.00
57801;BME280;43627;42.728;23.256;2023-04-06T02:20:38;94675.75;;;-0.64;100.00
57801;BME280;43627;42.728;23.256;2023-04-06T02:23:04;94630.03;;;-0.83;100.00
57801;BME280;43627;42.728;23.256;2023-04-06T02:25:31;94632.31;;;-0.82;100.00
57801;BME280;43627;42.728;23.256;2023-04-06T02:27:58;94666.94;;;-0.61;100.00
57801;BME280;43627;42.728;23.256;2023-04-06T02:30:26;94644.50;;;-0.74;100.00
57801;BME280;43627;42.728;23.256;2023-04-06T02:32:53;94653.59;;;-0.64;100.00
57801;BME280;43627;42.728;23.256;2023-04-06T02:35:19;94649.84;;;-0.74;100.00
57801;BME280;43627;42.728;23.256;2023-04-06T02:37:46;94667.72;;;-0.64;100.00
57801;BME280;43627;42.728;23.256;2023-04-06T02:40:13;94668.88;;;-0.65;100.00
57801;BME280;43627;42.728;23.256;2023-04-06T02:42:40;94672.59;;;-0.51;100.00
57801;BME280;43627;42.728;23.256;2023-04-06T02:45:07;94672.22;;;-0.53;100.00
57801;BME280;43627;42.728;23.256;2023-04-06T02:47:34;94672.19;;;-0.50;100.00
57801;BME280;43627;42.728;23.256;2023-04-06T02:50:01;94668.31;;;-0.45;100.00
57801;BME280;43627;42.728;23.256;2023-04-06T02:52:28;94666.41;;;-0.48;100.00
57801;BME280;43627;42.728;23.256;2023-04-06T02:54:55;94667.47;;;-0.35;100.00
57801;BME280;43627;42.728;23.256;2023-04-06T02:57:22;94660.53;;;-0.33;100.00
57801;BME280;43627;42.728;23.256;2023-04-06T02:59:48;94667.84;;;-0.37;100.00
57801;BME280;43627;42.728;23.256;2023-04-06T03:02:15;94654.13;;;-0.42;100.00
57801;BME280;43627;42.728;23.256;2023-04-06T03:04:42;94660.94;;;-0.34;100.00
57801;BME280;43627;42.728;23.256;2023-04-06T03:07:09;94656.22;;;-0.23;100.00
57801;BME280;43627;42.728;23.256;2023-04-06T03:09:39;94674.91;;;-0.16;100.00
57801;BME280;43627;42.728;23.256;2023-04-06T03:12:06;94660.00;;;-0.17;100.00
57801;BME280;43627;42.728;23.256;2023-04-06T03:14:35;94672.25;;;-0.19;100.00
57801;BME280;43627;42.728;23.256;2023-04-06T03:17:02;94648.63;;;-0.28;100.00
57801;BME280;43627;42.728;23.256;2023-04-06T03:19:29;94673.59;;;-0.38;100.00
57801;BME280;43627;42.728;23.256;2023-04-06T03:21:55;94664.78;;;-0.35;100.00
57801;BME280;43627;42.728;23.256;2023-04-06T03:24:22;94650.75;;;-0.46;100.00
57801;BME280;43627;42.728;23.256;2023-04-06T03:26:49;94671.19;;;-0.29;100.00
57801;BME280;43627;42.728;23.256;2023-04-06T03:29:16;94665.50;;;-0.31;100.00
57801;BME280;43627;42.728;23.256;2023-04-06T03:31:42;94655.22;;;-0.36;100.00
57801;BME280;43627;42.728;23.256;2023-04-06T03:34:09;94654.47;;;-0.37;100.00
57801;BME280;43627;42.728;23.256;2023-04-06T03:36:36;94662.16;;;-0.42;100.00
57801;BME280;43627;42.728;23.256;2023-04-06T03:39:03;94655.69;;;-0.45;100.00
57801;BME280;43627;42.728;23.256;2023-04-06T03:41:30;94659.47;;;-0.42;100.00
57801;BME280;43627;42.728;23.256;2023-04-06T03:43:56;94651.63;;;-0.60;100.00
57801;BME280;43627;42.728;23.256;2023-04-06T03:46:23;94657.31;;;-0.54;100.00
57801;BME280;43627;42.728;23.256;2023-04-06T03:48:50;94654.56;;;-0.47;100.00
57801;BME280;43627;42.728;23.256;2023-04-06T03:51:16;94660.41;;;-0.56;100.00
57801;BME280;43627;42.728;23.256;2023-04-06T03:53:43;94646.63;;;-0.58;100.00
57801;BME280;43627;42.728;23.256;2023-04-06T03:56:10;94651.19;;;-0.55;100.00
57801;BME280;43627;42.728;23.256;2023-04-06T03:58:37;94643.59;;;-0.60;100.00
57801;BME280;43627;42.728;23.256;2023-04-06T04:01:03;94663.72;;;-0.45;100.00
57801;BME280;43627;42.728;23.256;2023-04-06T04:03:30;94649.75;;;-0.63;100.00
57801;BME280;43627;42.728;23.256;2023-04-06T04:05:57;94655.75;;;-0.52;100.00
57801;BME280;43627;42.728;23.256;2023-04-06T04:08:24;94649.03;;;-0.71;100.00
57801;BME280;43627;42.728;23.256;2023-04-06T04:10:51;94623.13;;;-0.81;100.00
57801;BME280;43627;42.728;23.256;2023-04-06T04:13:19;94660.00;;;-0.54;100.00
57801;BME280;43627;42.728;23.256;2023-04-06T04:15:45;94626.44;;;-0.66;100.00
57801;BME280;43627;42.728;23.256;2023-04-06T04:18:14;94644.34;;;-0.60;100.00
57801;BME280;43627;42.728;23.256;2023-04-06T04:20:41;94651.50;;;-0.49;100.00
57801;BME280;43627;42.728;23.256;2023-04-06T04:23:07;94633.31;;;-0.65;100.00
57801;BME280;43627;42.728;23.256;2023-04-06T04:25:34;94662.22;;;-0.49;100.00
57801;BME280;43627;42.728;23.256;2023-04-06T04:28:01;94651.03;;;-0.41;100.00
57801;BME280;43627;42.728;23.256;2023-04-06T04:30:28;94654.19;;;-0.46;100.00
57801;BME280;43627;42.728;23.256;2023-04-06T04:32:55;94651.78;;;-0.37;100.00
57801;BME280;43627;42.728;23.256;2023-04-06T04:35:22;94653.13;;;-0.21;100.00
57801;BME280;43627;42.728;23.256;2023-04-06T04:37:48;94652.53;;;-0.36;100.00
57801;BME280;43627;42.728;23.256;2023-04-06T04:40:15;94635.44;;;-0.46;100.00
57801;BME280;43627;42.728;23.256;2023-04-06T04:42:43;94637.19;;;-0.32;100.00
57801;BME280;43627;42.728;23.256;2023-04-06T04:45:10;94659.25;;;-0.21;100.00
57801;BME280;43627;42.728;23.256;2023-04-06T04:47:37;94666.94;;;-0.23;100.00
57801;BME280;43627;42.728;23.256;2023-04-06T04:50:04;94655.47;;;-0.23;100.00
57801;BME280;43627;42.728;23.256;2023-04-06T04:52:31;94656.22;;;-0.23;100.00
57801;BME280;43627;42.728;23.256;2023-04-06T04:54:58;94657.31;;;-0.17;100.00
57801;BME280;43627;42.728;23.256;2023-04-06T04:57:25;94643.94;;;-0.20;100.00
57801;BME280;43627;42.728;23.256;2023-04-06T04:59:51;94660.31;;;-0.11;100.00
57801;BME280;43627;42.728;23.256;2023-04-06T05:02:18;94662.91;;;-0.04;100.00
57801;BME280;43627;42.728;23.256;2023-04-06T05:04:45;94661.03;;;-0.07;100.00
57801;BME280;43627;42.728;23.256;2023-04-06T05:07:12;94638.91;;;-0.15;100.00
57801;BME280;43627;42.728;23.256;2023-04-06T05:09:38;94659.13;;;-0.07;100.00
57801;BME280;43627;42.728;23.256;2023-04-06T05:12:06;94629.44;;;-0.23;100.00
57801;BME280;43627;42.728;23.256;2023-04-06T05:14:33;94638.63;;;0.10;100.00
57801;BME280;43627;42.728;23.256;2023-04-06T05:17:00;94663.19;;;0.05;100.00
57801;BME280;43627;42.728;23.256;2023-04-06T05:19:27;94660.91;;;0.04;100.00
57801;BME280;43627;42.728;23.256;2023-04-06T05:21:53;94643.09;;;-0.14;100.00
57801;BME280;43627;42.728;23.256;2023-04-06T05:24:20;94641.13;;;-0.06;100.00
57801;BME280;43627;42.728;23.256;2023-04-06T05:26:48;94625.44;;;-0.08;100.00
57801;BME280;43627;42.728;23.256;2023-04-06T05:29:15;94652.78;;;0.11;100.00
57801;BME280;43627;42.728;23.256;2023-04-06T05:31:43;94663.53;;;0.07;100.00
57801;BME280;43627;42.728;23.256;2023-04-06T05:34:10;94657.00;;;0.08;100.00
57801;BME280;43627;42.728;23.256;2023-04-06T05:36:36;94661.13;;;0.16;100.00
57801;BME280;43627;42.728;23.256;2023-04-06T05:39:03;94641.31;;;0.10;100.00
57801;BME280;43627;42.728;23.256;2023-04-06T05:41:30;94646.53;;;0.21;100.00
57801;BME280;43627;42.728;23.256;2023-04-06T05:43:57;94647.25;;;0.25;100.00
57801;BME280;43627;42.728;23.256;2023-04-06T05:46:23;94658.16;;;0.41;100.00
57801;BME280;43627;42.728;23.256;2023-04-06T05:48:50;94645.84;;;0.44;100.00
57801;BME280;43627;42.728;23.256;2023-04-06T05:51:17;94649.19;;;0.51;100.00
57801;BME280;43627;42.728;23.256;2023-04-06T05:53:43;94660.63;;;0.55;100.00
57801;BME280;43627;42.728;23.256;2023-04-06T05:56:10;94634.00;;;0.41;100.00
57801;BME280;43627;42.728;23.256;2023-04-06T05:58:37;94662.13;;;0.56;100.00
57801;BME280;43627;42.728;23.256;2023-04-06T06:01:04;94637.38;;;0.45;100.00
57801;BME280;43627;42.728;23.256;2023-04-06T06:03:31;94644.94;;;0.54;100.00
57801;BME280;43627;42.728;23.256;2023-04-06T06:06:02;94642.59;;;0.56;100.00
57801;BME280;43627;42.728;23.256;2023-04-06T06:08:30;94635.47;;;0.46;100.00
57801;BME280;43627;42.728;23.256;2023-04-06T06:10:57;94620.28;;;0.36;100.00
57801;BME280;43627;42.728;23.256;2023-04-06T06:13:24;94643.00;;;0.54;100.00
57801;BME280;43627;42.728;23.256;2023-04-06T06:15:51;94619.56;;;0.32;100.00
57801;BME280;43627;42.728;23.256;2023-04-06T06:18:18;94624.47;;;0.37;100.00
57801;BME280;43627;42.728;23.256;2023-04-06T06:20:45;94619.75;;;0.48;100.00
57801;BME280;43627;42.728;23.256;2023-04-06T06:23:12;94634.00;;;0.41;100.00
57801;BME280;43627;42.728;23.256;2023-04-06T06:25:39;94645.59;;;0.35;100.00
57801;BME280;43627;42.728;23.256;2023-04-06T06:28:06;94651.81;;;0.55;100.00
57801;BME280;43627;42.728;23.256;2023-04-06T06:30:33;94641.00;;;0.62;100.00
57801;BME280;43627;42.728;23.256;2023-04-06T06:33:00;94638.16;;;0.46;100.00
57801;BME280;43627;42.728;23.256;2023-04-06T06:35:27;94632.44;;;0.44;100.00
57801;BME280;43627;42.728;23.256;2023-04-06T06:37:54;94649.19;;;0.51;100.00
57801;BME280;43627;42.728;23.256;2023-04-06T06:40:21;94652.31;;;0.46;100.00
57801;BME280;43627;42.728;23.256;2023-04-06T06:42:50;94557.31;;;-0.10;100.00
57801;BME280;43627;42.728;23.256;2023-04-06T06:45:18;94656.25;;;0.69;100.00
57801;BME280;43627;42.728;23.256;2023-04-06T06:47:45;94640.06;;;0.45;100.00
57801;BME280;43627;42.728;23.256;2023-04-06T06:50:12;94630.06;;;0.76;100.00
57801;BME280;43627;42.728;23.256;2023-04-06T06:52:39;94659.84;;;0.85;100.00
57801;BME280;43627;42.728;23.256;2023-04-06T06:55:07;94652.06;;;0.91;100.00
57801;BME280;43627;42.728;23.256;2023-04-06T06:57:34;94654.81;;;0.88;100.00
57801;BME280;43627;42.728;23.256;2023-04-06T07:00:01;94646.47;;;0.82;100.00
57801;BME280;43627;42.728;23.256;2023-04-06T07:02:28;94651.63;;;0.96;100.00
57801;BME280;43627;42.728;23.256;2023-04-06T07:04:55;94665.75;;;0.73;100.00
57801;BME280;43627;42.728;23.256;2023-04-06T07:07:22;94658.66;;;0.87;100.00
57801;BME280;43627;42.728;23.256;2023-04-06T07:09:49;94657.94;;;0.82;100.00
57801;BME280;43627;42.728;23.256;2023-04-06T07:12:15;94648.88;;;0.73;100.00
57801;BME280;43627;42.728;23.256;2023-04-06T07:14:43;94653.94;;;0.94;100.00
57801;BME280;43627;42.728;23.256;2023-04-06T07:17:09;94650.53;;;1.17;100.00
57801;BME280;43627;42.728;23.256;2023-04-06T07:19:36;94631.06;;;1.09;100.00
57801;BME280;43627;42.728;23.256;2023-04-06T07:22:03;94658.09;;;1.22;100.00
57801;BME280;43627;42.728;23.256;2023-04-06T07:24:31;94652.88;;;1.15;100.00
57801;BME280;43627;42.728;23.256;2023-04-06T07:27:01;94658.75;;;1.30;100.00
57801;BME280;43627;42.728;23.256;2023-04-06T07:29:28;94619.28;;;1.27;100.00
57801;BME280;43627;42.728;23.256;2023-04-06T07:31:55;94650.69;;;1.53;100.00
57801;BME280;43627;42.728;23.256;2023-04-06T07:34:22;94656.28;;;1.39;100.00
57801;BME280;43627;42.728;23.256;2023-04-06T07:36:49;94651.22;;;1.45;100.00
57801;BME280;43627;42.728;23.256;2023-04-06T07:39:16;94645.09;;;1.44;100.00
57801;BME280;43627;42.728;23.256;2023-04-06T07:41:42;94645.31;;;1.30;100.00
57801;BME280;43627;42.728;23.256;2023-04-06T07:44:09;94654.13;;;1.54;100.00
57801;BME280;43627;42.728;23.256;2023-04-06T07:46:36;94644.19;;;1.51;100.00
57801;BME280;43627;42.728;23.256;2023-04-06T07:49:03;94642.44;;;1.64;100.00
57801;BME280;43627;42.728;23.256;2023-04-06T07:51:30;94645.59;;;1.79;100.00
57801;BME280;43627;42.728;23.256;2023-04-06T07:53:57;94663.25;;;1.80;99.36
57801;BME280;43627;42.728;23.256;2023-04-06T07:56:24;94645.78;;;1.91;100.00
57801;BME280;43627;42.728;23.256;2023-04-06T07:58:51;94643.50;;;2.10;99.09
57801;BME280;43627;42.728;23.256;2023-04-06T08:01:19;94645.56;;;2.02;100.00
57801;BME280;43627;42.728;23.256;2023-04-06T08:03:46;94657.84;;;2.03;97.10
57801;BME280;43627;42.728;23.256;2023-04-06T08:06:14;94648.28;;;1.79;96.34
57801;BME280;43627;42.728;23.256;2023-04-06T08:08:41;94631.47;;;1.75;97.93
57801;BME280;43627;42.728;23.256;2023-04-06T08:11:08;94646.53;;;1.92;95.77
57801;BME280;43627;42.728;23.256;2023-04-06T08:13:35;94647.91;;;2.20;94.35
57801;BME280;43627;42.728;23.256;2023-04-06T08:16:03;94636.03;;;2.17;91.06
57801;BME280;43627;42.728;23.256;2023-04-06T08:18:29;94634.19;;;1.94;90.70
57801;BME280;43627;42.728;23.256;2023-04-06T08:20:56;94612.81;;;1.87;93.56
57801;BME280;43627;42.728;23.256;2023-04-06T08:23:23;94645.22;;;2.20;93.13
57801;BME280;43627;42.728;23.256;2023-04-06T08:25:50;94632.38;;;2.27;91.09
57801;BME280;43627;42.728;23.256;2023-04-06T08:28:20;94647.06;;;2.23;89.85
57801;BME280;43627;42.728;23.256;2023-04-06T08:30:47;94644.84;;;2.18;92.75
57801;BME280;43627;42.728;23.256;2023-04-06T08:33:14;94655.13;;;2.43;91.51
57801;BME280;43627;42.728;23.256;2023-04-06T08:35:42;94650.16;;;2.41;92.64
57801;BME280;43627;42.728;23.256;2023-04-06T08:38:08;94652.94;;;2.54;91.03
57801;BME280;43627;42.728;23.256;2023-04-06T08:40:37;94644.81;;;2.57;88.97
57801;BME280;43627;42.728;23.256;2023-04-06T08:43:06;94646.50;;;2.68;87.74
57801;BME280;43627;42.728;23.256;2023-04-06T08:45:35;94628.75;;;2.70;89.38
57801;BME280;43627;42.728;23.256;2023-04-06T08:48:03;94644.09;;;2.90;85.16
57801;BME280;43627;42.728;23.256;2023-04-06T08:50:30;94652.44;;;3.11;86.19
57801;BME280;43627;42.728;23.256;2023-04-06T08:52:59;94653.44;;;2.85;83.93
57801;BME280;43627;42.728;23.256;2023-04-06T08:55:26;94636.66;;;2.61;83.96
57801;BME280;43627;42.728;23.256;2023-04-06T08:57:54;94649.13;;;2.71;81.41
57801;BME280;43627;42.728;23.256;2023-04-06T09:00:22;94637.97;;;2.53;81.07
57801;BME280;43627;42.728;23.256;2023-04-06T09:02:49;94645.00;;;2.67;84.09
57801;BME280;43627;42.728;23.256;2023-04-06T09:05:20;94644.94;;;2.86;83.55
57801;BME280;43627;42.728;23.256;2023-04-06T09:07:48;94611.25;;;2.62;84.26
57801;BME280;43627;42.728;23.256;2023-04-06T09:10:15;94643.97;;;3.13;86.92
57801;BME280;43627;42.728;23.256;2023-04-06T09:12:43;94637.88;;;3.25;82.86
57801;BME280;43627;42.728;23.256;2023-04-06T09:15:21;94631.81;;;3.37;77.83
57801;BME280;43627;42.728;23.256;2023-04-06T09:17:50;94619.16;;;3.51;80.63
57801;BME280;43627;42.728;23.256;2023-04-06T09:20:23;94645.59;;;3.56;75.76
57801;BME280;43627;42.728;23.256;2023-04-06T09:22:52;94625.25;;;3.67;74.65
57801;BME280;43627;42.728;23.256;2023-04-06T09:25:20;94639.28;;;3.62;73.31
57801;BME280;43627;42.728;23.256;2023-04-06T09:27:48;94628.03;;;3.80;70.93
57801;BME280;43627;42.728;23.256;2023-04-06T09:30:15;94638.41;;;3.65;69.55
57801;BME280;43627;42.728;23.256;2023-04-06T09:32:47;94631.50;;;3.64;72.96
57801;BME280;43627;42.728;23.256;2023-04-06T09:35:14;94534.22;;;2.84;74.00
57801;BME280;43627;42.728;23.256;2023-04-06T09:37:45;94634.06;;;3.55;71.87
57801;BME280;43627;42.728;23.256;2023-04-06T09:40:13;94631.09;;;3.50;72.59
57801;BME280;43627;42.728;23.256;2023-04-06T09:42:41;94597.09;;;3.39;71.37
57801;BME280;43627;42.728;23.256;2023-04-06T09:45:08;94618.06;;;3.77;71.27
57801;BME280;43627;42.728;23.256;2023-04-06T09:47:36;94630.19;;;3.40;72.13
57801;BME280;43627;42.728;23.256;2023-04-06T09:50:04;94620.16;;;3.57;72.73
57801;BME280;43627;42.728;23.256;2023-04-06T09:52:45;94624.44;;;3.99;69.44
57801;BME280;43627;42.728;23.256;2023-04-06T09:55:20;94625.72;;;3.79;67.95
57801;BME280;43627;42.728;23.256;2023-04-06T09:57:55;94613.38;;;3.94;72.73
57801;BME280;43627;42.728;23.256;2023-04-06T10:00:25;94624.28;;;4.32;67.37
57801;BME280;43627;42.728;23.256;2023-04-06T10:05:55;94632.81;;;3.89;67.58
57801;BME280;43627;42.728;23.256;2023-04-06T10:08:27;94631.47;;;3.81;69.75
57801;BME280;43627;42.728;23.256;2023-04-06T10:10:58;94625.22;;;3.55;69.63
57801;BME280;43627;42.728;23.256;2023-04-06T10:13:25;94629.09;;;3.54;69.12
57801;BME280;43627;42.728;23.256;2023-04-06T10:15:52;94628.66;;;3.55;70.69
57801;BME280;43627;42.728;23.256;2023-04-06T10:18:19;94618.91;;;3.45;68.82
57801;BME280;43627;42.728;23.256;2023-04-06T10:20:53;94631.25;;;3.59;69.51
57801;BME280;43627;42.728;23.256;2023-04-06T10:25:59;94623.66;;;4.41;67.47
57801;BME280;43627;42.728;23.256;2023-04-06T10:28:34;94605.94;;;4.27;63.10
57801;BME280;43627;42.728;23.256;2023-04-06T10:31:05;94610.41;;;3.76;66.51
57801;BME280;43627;42.728;23.256;2023-04-06T10:33:33;94620.72;;;3.93;68.08
57801;BME280;43627;42.728;23.256;2023-04-06T10:36:13;94601.94;;;3.90;63.60
57801;BME280;43627;42.728;23.256;2023-04-06T10:38:41;94609.13;;;4.09;63.85
57801;BME280;43627;42.728;23.256;2023-04-06T10:41:11;94600.56;;;3.98;64.18
57801;BME280;43627;42.728;23.256;2023-04-06T10:43:39;94604.81;;;3.70;61.39
57801;BME280;43627;42.728;23.256;2023-04-06T10:46:08;94605.16;;;3.85;62.90
57801;BME280;43627;42.728;23.256;2023-04-06T10:51:11;94604.06;;;4.11;64.78
57801;BME280;43627;42.728;23.256;2023-04-06T10:53:44;94618.69;;;4.39;63.79
57801;BME280;43627;42.728;23.256;2023-04-06T10:56:14;94598.78;;;4.08;62.11
57801;BME280;43627;42.728;23.256;2023-04-06T10:58:48;94535.22;;;3.65;61.57
57801;BME280;43627;42.728;23.256;2023-04-06T11:01:17;94597.78;;;4.14;62.17
57801;BME280;43627;42.728;23.256;2023-04-06T11:03:45;94583.97;;;3.99;58.77
57801;BME280;43627;42.728;23.256;2023-04-06T11:06:23;94530.53;;;3.53;59.61
57801;BME280;43627;42.728;23.256;2023-04-06T11:08:50;94584.84;;;4.09;59.73
57801;BME280;43627;42.728;23.256;2023-04-06T11:11:21;94589.88;;;4.49;57.95
57801;BME280;43627;42.728;23.256;2023-04-06T11:16:24;94550.53;;;4.10;58.11
57801;BME280;43627;42.728;23.256;2023-04-06T11:21:31;94580.44;;;4.28;58.42
57801;BME280;43627;42.728;23.256;2023-04-06T11:24:16;94569.53;;;4.32;58.18
57801;BME280;43627;42.728;23.256;2023-04-06T11:26:46;94553.81;;;4.55;59.63
57801;BME280;43627;42.728;23.256;2023-04-06T11:29:17;94575.31;;;5.19;58.10
57801;BME280;43627;42.728;23.256;2023-04-06T11:31:52;94571.75;;;5.57;56.54
57801;BME280;43627;42.728;23.256;2023-04-06T11:34:20;94550.19;;;5.66;55.28
57801;BME280;43627;42.728;23.256;2023-04-06T11:36:53;94570.56;;;5.10;56.04
57801;BME280;43627;42.728;23.256;2023-04-06T11:39:22;94559.09;;;5.19;55.79
57801;BME280;43627;42.728;23.256;2023-04-06T11:41:54;94564.72;;;5.25;56.45
57801;BME280;43627;42.728;23.256;2023-04-06T11:44:46;94561.84;;;5.06;55.71
57801;BME280;43627;42.728;23.256;2023-04-06T11:47:16;94559.97;;;5.16;57.28
57801;BME280;43627;42.728;23.256;2023-04-06T11:49:43;94560.38;;;5.27;55.29
57801;BME280;43627;42.728;23.256;2023-04-06T11:52:19;94557.19;;;5.07;55.93
57801;BME280;43627;42.728;23.256;2023-04-06T11:54:48;94526.16;;;5.11;55.52
57801;BME280;43627;42.728;23.256;2023-04-06T11:57:15;94552.66;;;4.91;56.27
57801;BME280;43627;42.728;23.256;2023-04-06T11:59:43;94550.75;;;5.26;56.72
57801;BME280;43627;42.728;23.256;2023-04-06T12:02:10;94541.34;;;5.31;54.96
57801;BME280;43627;42.728;23.256;2023-04-06T12:04:37;94554.53;;;5.63;54.18
57801;BME280;43627;42.728;23.256;2023-04-06T12:07:04;94550.84;;;5.35;53.63
57801;BME280;43627;42.728;23.256;2023-04-06T12:09:31;94545.16;;;5.21;54.27
57801;BME280;43627;42.728;23.256;2023-04-06T12:11:58;94540.72;;;5.27;55.19
57801;BME280;43627;42.728;23.256;2023-04-06T12:14:25;94538.69;;;5.53;53.98
57801;BME280;43627;42.728;23.256;2023-04-06T12:16:52;94541.09;;;5.94;53.56
57801;BME280;43627;42.728;23.256;2023-04-06T12:19:19;94532.53;;;5.96;52.66
57801;BME280;43627;42.728;23.256;2023-04-06T12:21:45;94507.16;;;5.59;51.54
57801;BME280;43627;42.728;23.256;2023-04-06T12:24:12;94524.19;;;5.47;53.03
57801;BME280;43627;42.728;23.256;2023-04-06T12:26:39;94532.38;;;5.56;53.21
57801;BME280;43627;42.728;23.256;2023-04-06T12:29:07;94540.50;;;5.78;52.00
57801;BME280;43627;42.728;23.256;2023-04-06T12:31:35;94533.25;;;5.74;52.35
57801;BME280;43627;42.728;23.256;2023-04-06T12:34:02;94540.31;;;5.50;52.10
57801;BME280;43627;42.728;23.256;2023-04-06T12:36:30;94533.03;;;5.25;53.52
57801;BME280;43627;42.728;23.256;2023-04-06T12:38:58;94522.97;;;5.26;54.05
57801;BME280;43627;42.728;23.256;2023-04-06T12:41:25;94535.72;;;5.60;53.24
57801;BME280;43627;42.728;23.256;2023-04-06T12:43:52;94522.38;;;5.65;54.65
57801;BME280;43627;42.728;23.256;2023-04-06T12:46:19;94531.06;;;5.60;53.99
57801;BME280;43627;42.728;23.256;2023-04-06T12:48:47;94529.81;;;5.74;53.59
57801;BME280;43627;42.728;23.256;2023-04-06T12:51:14;94524.09;;;5.72;52.81
57801;BME280;43627;42.728;23.256;2023-04-06T12:53:41;94492.88;;;5.58;52.81
57801;BME280;43627;42.728;23.256;2023-04-06T12:56:15;94516.41;;;5.70;52.78
57801;BME280;43627;42.728;23.256;2023-04-06T12:58:44;94526.59;;;5.66;52.36
57801;BME280;43627;42.728;23.256;2023-04-06T13:01:13;94516.59;;;5.54;52.04
57801;BME280;43627;42.728;23.256;2023-04-06T13:03:40;94509.50;;;5.69;52.27
57801;BME280;43627;42.728;23.256;2023-04-06T13:06:08;94518.75;;;5.59;52.70